Thursday, March 05, 2015
10:26 UTC
  |  Log In   |  Register Free
Airport Search:

Madison Municipal Airport
(KIMS)

Madison Municipal Airport Diagram
No Airport Diagram Available

FAA data valid effective January 08, 2015 - March 05, 2015 (unless otherwise noted).

 
 
 
 
 
 
 
 
 
 
 
 
 
 

Current Aviation Weather for Madison Municipal Airport (KIMS)

The most recent METAR observation for KIMS was updated at: 1012
METAR Summary (Translated METAR)
KIMS
050952Z AUTO 36003KT 10SM SCT022 OVC033 M06/M13 A3029 RMK AO1
KJVY
030145Z 34005KT 10SM CLR 00/M11 A3027 RMK LAST
(26.9 nm SW from KIMS)
KLOU
051003Z AUTO 35007KT 1SM -SN BR VV012 M07/M09 A3028 RMK AO2 P0000 T10671089
(33.3 nm SW from KIMS)
TAF
No TAF information found within 50 nm of KLOU
  Airport Weather Conditions for KIMS

Current weather conditions are
not available for IMS


The nearest NOAA weather station
is at LOU, (33.3 nm SW from IMS)
  
 Current Weather at LOU
20° F
Light Snow Fog/Mist
North winds at 9.2 mph
LOU NOAA Radar

Pressure: 30.28 in
Humidity: 85%
Wind: North at 9.2 MPH (8 KT)
Dew Point: 16.0°F
Visibility: 0.75 mi


Airport Weather Forecast for KIMS

Translated METAR and TAF for KLOU
Translated METAR for KLOU (1025 UTC 05 March 2015)
found at http://aviationweather.gov/adds/metars/
 
METAR text: KLOU 051003Z AUTO 35007KT 1SM -SN BR VV012 M07/M09 A3028 RMK AO2 P0000 T10671089
Conditions at: KLOU (LOUISVILLE/BOWMN, KY, US) observed 1003 UTC 05 March 2015
Temperature: -6.7°C (20°F)
Dewpoint: -8.9°C (16°F) [RH = 84%]
Pressure (altimeter): 30.28 inches Hg (1025.5 mb)
Winds: from the N (350 degrees) at 8 MPH (7 knots; 3.6 m/s)
Visibility: 1.00 miles (1.61 km)
Ceiling: indefinite ceiling with vertical visibility of 1200 feet AGL
Clouds: obscured sky
Weather: -SN BR  (light snow, mist)
Translated TAF for KLOU

There is no translated TAF available for this airport

Find All Airport Services Find A Hotel Find A Rental Car Find A Golf Course Find A Restaurant $100 Hamburger



FBO's on the Field
FBO Company Facility Photos Services Transportation Aviation Fuel Prices: Prices include tax
Catering Weather Repair Courtesy Rental Type 100LL JetA JetA+ MOGAS 8087
 
City of Madison

Currently rated 4.8 by 1 person
FS:Phillips 66
Last Updated: Mar-03
Login to update fuel prices
SS:
Contact City of MadisonMore FBO Information
 
Add another FBO Facility Photos Catering Weather Repair Courtesy Rental Type 100LL JetA JetA+ MOGAS 8087
Services Transportation Aviation Fuel Prices: Prices include tax


model-print
model-print
model-print
model-print